sensor_id;sensor_type;location;lat;lon;timestamp;P1;durP1;ratioP1;P2;durP2;ratioP2
43552;SDS011;29153;42.696;23.218;2023-06-10T00:00:47;11.00;;;6.90;;
43552;SDS011;29153;42.696;23.218;2023-06-10T00:03:16;11.15;;;7.00;;
43552;SDS011;29153;42.696;23.218;2023-06-10T00:05:44;11.38;;;7.30;;
43552;SDS011;29153;42.696;23.218;2023-06-10T00:08:12;10.90;;;7.75;;
43552;SDS011;29153;42.696;23.218;2023-06-10T00:10:41;9.78;;;6.75;;
43552;SDS011;29153;42.696;23.218;2023-06-10T00:13:09;12.15;;;7.50;;
43552;SDS011;29153;42.696;23.218;2023-06-10T00:15:37;10.88;;;6.87;;
43552;SDS011;29153;42.696;23.218;2023-06-10T00:18:04;13.62;;;7.97;;
43552;SDS011;29153;42.696;23.218;2023-06-10T00:20:34;11.85;;;6.90;;
43552;SDS011;29153;42.696;23.218;2023-06-10T00:23:03;12.65;;;6.37;;
43552;SDS011;29153;42.696;23.218;2023-06-10T00:25:32;10.80;;;6.70;;
43552;SDS011;29153;42.696;23.218;2023-06-10T00:28:00;10.40;;;6.80;;
43552;SDS011;29153;42.696;23.218;2023-06-10T00:30:28;9.30;;;6.42;;
43552;SDS011;29153;42.696;23.218;2023-06-10T00:32:55;9.83;;;6.62;;
43552;SDS011;29153;42.696;23.218;2023-06-10T00:35:23;10.25;;;6.45;;
43552;SDS011;29153;42.696;23.218;2023-06-10T00:37:50;11.12;;;6.72;;
43552;SDS011;29153;42.696;23.218;2023-06-10T00:40:18;10.58;;;6.62;;
43552;SDS011;29153;42.696;23.218;2023-06-10T00:42:46;12.43;;;6.58;;
43552;SDS011;29153;42.696;23.218;2023-06-10T00:45:13;11.97;;;6.75;;
43552;SDS011;29153;42.696;23.218;2023-06-10T00:47:41;13.18;;;6.47;;
43552;SDS011;29153;42.696;23.218;2023-06-10T00:50:09;10.32;;;6.35;;
43552;SDS011;29153;42.696;23.218;2023-06-10T00:52:37;10.75;;;6.78;;
43552;SDS011;29153;42.696;23.218;2023-06-10T00:57:33;9.63;;;6.35;;
43552;SDS011;29153;42.696;23.218;2023-06-10T01:00:01;10.98;;;7.20;;
43552;SDS011;29153;42.696;23.218;2023-06-10T01:02:30;9.70;;;6.58;;
43552;SDS011;29153;42.696;23.218;2023-06-10T01:04:58;10.78;;;6.50;;
43552;SDS011;29153;42.696;23.218;2023-06-10T01:07:31;12.95;;;6.70;;
43552;SDS011;29153;42.696;23.218;2023-06-10T01:10:22;11.22;;;6.70;;
43552;SDS011;29153;42.696;23.218;2023-06-10T01:13:00;11.63;;;6.50;;
43552;SDS011;29153;42.696;23.218;2023-06-10T01:15:32;10.13;;;6.15;;
43552;SDS011;29153;42.696;23.218;2023-06-10T01:18:02;10.63;;;6.15;;
43552;SDS011;29153;42.696;23.218;2023-06-10T01:20:36;9.88;;;6.75;;
43552;SDS011;29153;42.696;23.218;2023-06-10T01:23:06;13.50;;;6.95;;
43552;SDS011;29153;42.696;23.218;2023-06-10T01:25:37;15.48;;;7.20;;
43552;SDS011;29153;42.696;23.218;2023-06-10T01:28:07;10.48;;;6.17;;
43552;SDS011;29153;42.696;23.218;2023-06-10T01:30:37;11.18;;;6.60;;
43552;SDS011;29153;42.696;23.218;2023-06-10T01:33:06;9.05;;;6.75;;
43552;SDS011;29153;42.696;23.218;2023-06-10T01:35:36;12.98;;;7.50;;
43552;SDS011;29153;42.696;23.218;2023-06-10T01:38:05;10.98;;;6.78;;
43552;SDS011;29153;42.696;23.218;2023-06-10T01:40:34;8.88;;;6.62;;
43552;SDS011;29153;42.696;23.218;2023-06-10T01:43:02;10.65;;;5.83;;
43552;SDS011;29153;42.696;23.218;2023-06-10T01:45:30;9.60;;;6.22;;
43552;SDS011;29153;42.696;23.218;2023-06-10T01:47:57;10.98;;;6.00;;
43552;SDS011;29153;42.696;23.218;2023-06-10T01:50:25;12.58;;;6.92;;
43552;SDS011;29153;42.696;23.218;2023-06-10T01:52:52;10.80;;;6.90;;
43552;SDS011;29153;42.696;23.218;2023-06-10T01:55:20;8.40;;;5.80;;
43552;SDS011;29153;42.696;23.218;2023-06-10T01:57:48;8.73;;;6.70;;
43552;SDS011;29153;42.696;23.218;2023-06-10T02:00:15;12.37;;;7.12;;
43552;SDS011;29153;42.696;23.218;2023-06-10T02:02:43;10.75;;;6.33;;
43552;SDS011;29153;42.696;23.218;2023-06-10T02:05:11;10.48;;;6.22;;
43552;SDS011;29153;42.696;23.218;2023-06-10T02:07:38;9.40;;;6.53;;
43552;SDS011;29153;42.696;23.218;2023-06-10T02:10:07;9.40;;;5.67;;
43552;SDS011;29153;42.696;23.218;2023-06-10T02:12:35;8.48;;;5.47;;
43552;SDS011;29153;42.696;23.218;2023-06-10T02:15:03;12.95;;;6.50;;
43552;SDS011;29153;42.696;23.218;2023-06-10T02:17:31;11.57;;;6.62;;
43552;SDS011;29153;42.696;23.218;2023-06-10T02:19:58;7.80;;;5.58;;
43552;SDS011;29153;42.696;23.218;2023-06-10T02:22:28;11.38;;;6.12;;
43552;SDS011;29153;42.696;23.218;2023-06-10T02:24:55;11.95;;;6.35;;
43552;SDS011;29153;42.696;23.218;2023-06-10T02:27:23;7.72;;;5.78;;
43552;SDS011;29153;42.696;23.218;2023-06-10T02:29:51;10.38;;;6.55;;
43552;SDS011;29153;42.696;23.218;2023-06-10T02:32:18;9.58;;;6.62;;
43552;SDS011;29153;42.696;23.218;2023-06-10T02:34:46;10.95;;;5.90;;
43552;SDS011;29153;42.696;23.218;2023-06-10T02:37:14;9.45;;;6.08;;
43552;SDS011;29153;42.696;23.218;2023-06-10T02:39:42;9.35;;;6.50;;
43552;SDS011;29153;42.696;23.218;2023-06-10T02:42:11;10.63;;;5.70;;
43552;SDS011;29153;42.696;23.218;2023-06-10T02:44:38;9.50;;;6.15;;
43552;SDS011;29153;42.696;23.218;2023-06-10T02:47:06;12.55;;;5.85;;
43552;SDS011;29153;42.696;23.218;2023-06-10T02:49:34;7.83;;;5.30;;
43552;SDS011;29153;42.696;23.218;2023-06-10T02:52:01;8.28;;;6.30;;
43552;SDS011;29153;42.696;23.218;2023-06-10T02:54:29;9.23;;;6.17;;
43552;SDS011;29153;42.696;23.218;2023-06-10T02:56:57;7.85;;;5.42;;
43552;SDS011;29153;42.696;23.218;2023-06-10T02:59:24;12.05;;;6.87;;
43552;SDS011;29153;42.696;23.218;2023-06-10T03:01:54;9.65;;;5.97;;
43552;SDS011;29153;42.696;23.218;2023-06-10T03:04:21;8.00;;;5.85;;
43552;SDS011;29153;42.696;23.218;2023-06-10T03:06:51;12.23;;;6.60;;
43552;SDS011;29153;42.696;23.218;2023-06-10T03:09:18;8.40;;;5.85;;
43552;SDS011;29153;42.696;23.218;2023-06-10T03:11:46;10.38;;;6.35;;
43552;SDS011;29153;42.696;23.218;2023-06-10T03:14:13;10.13;;;6.45;;
43552;SDS011;29153;42.696;23.218;2023-06-10T03:16:41;9.90;;;6.28;;
43552;SDS011;29153;42.696;23.218;2023-06-10T03:21:36;9.78;;;7.03;;
43552;SDS011;29153;42.696;23.218;2023-06-10T03:24:05;11.15;;;7.97;;
43552;SDS011;29153;42.696;23.218;2023-06-10T03:26:32;12.60;;;7.92;;
43552;SDS011;29153;42.696;23.218;2023-06-10T03:29:00;13.68;;;8.15;;
43552;SDS011;29153;42.696;23.218;2023-06-10T03:31:28;11.53;;;7.50;;
43552;SDS011;29153;42.696;23.218;2023-06-10T03:33:56;19.98;;;7.47;;
43552;SDS011;29153;42.696;23.218;2023-06-10T03:36:24;11.57;;;7.87;;
43552;SDS011;29153;42.696;23.218;2023-06-10T03:38:53;11.95;;;7.87;;
43552;SDS011;29153;42.696;23.218;2023-06-10T03:41:22;9.73;;;6.67;;
43552;SDS011;29153;42.696;23.218;2023-06-10T03:43:51;10.25;;;7.22;;
43552;SDS011;29153;42.696;23.218;2023-06-10T03:46:18;12.58;;;7.20;;
43552;SDS011;29153;42.696;23.218;2023-06-10T03:48:46;12.05;;;7.12;;
43552;SDS011;29153;42.696;23.218;2023-06-10T03:51:14;10.50;;;8.00;;
43552;SDS011;29153;42.696;23.218;2023-06-10T03:53:41;9.48;;;6.85;;
43552;SDS011;29153;42.696;23.218;2023-06-10T03:56:09;9.40;;;6.87;;
43552;SDS011;29153;42.696;23.218;2023-06-10T03:58:36;10.82;;;6.78;;
43552;SDS011;29153;42.696;23.218;2023-06-10T04:01:04;11.03;;;6.70;;
43552;SDS011;29153;42.696;23.218;2023-06-10T04:03:32;14.43;;;7.03;;
43552;SDS011;29153;42.696;23.218;2023-06-10T04:06:00;9.80;;;6.58;;
43552;SDS011;29153;42.696;23.218;2023-06-10T04:08:28;8.70;;;6.58;;
43552;SDS011;29153;42.696;23.218;2023-06-10T04:10:58;10.65;;;6.42;;
43552;SDS011;29153;42.696;23.218;2023-06-10T04:13:26;11.75;;;7.67;;
43552;SDS011;29153;42.696;23.218;2023-06-10T04:15:53;12.70;;;7.78;;
43552;SDS011;29153;42.696;23.218;2023-06-10T04:18:21;9.90;;;7.33;;
43552;SDS011;29153;42.696;23.218;2023-06-10T04:20:49;15.20;;;9.80;;
43552;SDS011;29153;42.696;23.218;2023-06-10T04:23:16;11.83;;;7.42;;
43552;SDS011;29153;42.696;23.218;2023-06-10T04:25:44;15.90;;;9.40;;
43552;SDS011;29153;42.696;23.218;2023-06-10T04:28:12;9.85;;;7.35;;
43552;SDS011;29153;42.696;23.218;2023-06-10T04:30:40;11.68;;;8.00;;
43552;SDS011;29153;42.696;23.218;2023-06-10T04:33:07;14.30;;;7.35;;
43552;SDS011;29153;42.696;23.218;2023-06-10T04:35:35;12.95;;;8.08;;
43552;SDS011;29153;42.696;23.218;2023-06-10T04:38:02;10.10;;;6.92;;
43552;SDS011;29153;42.696;23.218;2023-06-10T04:40:30;34.70;;;23.57;;
43552;SDS011;29153;42.696;23.218;2023-06-10T04:42:58;26.95;;;16.65;;
43552;SDS011;29153;42.696;23.218;2023-06-10T04:45:25;13.38;;;8.88;;
43552;SDS011;29153;42.696;23.218;2023-06-10T04:47:54;11.18;;;7.03;;
43552;SDS011;29153;42.696;23.218;2023-06-10T04:50:23;11.10;;;7.72;;
43552;SDS011;29153;42.696;23.218;2023-06-10T04:52:51;9.53;;;6.83;;
43552;SDS011;29153;42.696;23.218;2023-06-10T04:55:19;10.88;;;6.70;;
43552;SDS011;29153;42.696;23.218;2023-06-10T04:57:47;9.70;;;6.53;;
43552;SDS011;29153;42.696;23.218;2023-06-10T05:00:16;9.80;;;6.03;;
43552;SDS011;29153;42.696;23.218;2023-06-10T05:02:43;8.75;;;5.72;;
43552;SDS011;29153;42.696;23.218;2023-06-10T05:05:13;9.70;;;6.25;;
43552;SDS011;29153;42.696;23.218;2023-06-10T05:07:40;8.95;;;6.10;;
43552;SDS011;29153;42.696;23.218;2023-06-10T05:10:08;9.30;;;6.37;;
43552;SDS011;29153;42.696;23.218;2023-06-10T05:12:40;10.63;;;6.45;;
43552;SDS011;29153;42.696;23.218;2023-06-10T05:15:08;10.15;;;5.92;;
43552;SDS011;29153;42.696;23.218;2023-06-10T05:17:37;10.40;;;5.50;;
43552;SDS011;29153;42.696;23.218;2023-06-10T05:20:05;8.43;;;5.95;;
43552;SDS011;29153;42.696;23.218;2023-06-10T05:22:33;8.13;;;5.25;;
43552;SDS011;29153;42.696;23.218;2023-06-10T05:25:01;9.33;;;5.97;;
43552;SDS011;29153;42.696;23.218;2023-06-10T05:27:29;9.15;;;5.33;;
43552;SDS011;29153;42.696;23.218;2023-06-10T05:29:56;8.83;;;6.58;;
43552;SDS011;29153;42.696;23.218;2023-06-10T05:32:24;9.90;;;6.20;;
43552;SDS011;29153;42.696;23.218;2023-06-10T05:34:51;8.98;;;5.83;;
43552;SDS011;29153;42.696;23.218;2023-06-10T05:37:19;6.55;;;4.60;;
43552;SDS011;29153;42.696;23.218;2023-06-10T05:39:47;7.95;;;5.05;;
43552;SDS011;29153;42.696;23.218;2023-06-10T05:42:14;7.85;;;5.22;;
43552;SDS011;29153;42.696;23.218;2023-06-10T05:44:42;8.08;;;4.70;;
43552;SDS011;29153;42.696;23.218;2023-06-10T05:47:09;8.03;;;4.95;;
43552;SDS011;29153;42.696;23.218;2023-06-10T05:49:37;7.70;;;4.30;;
43552;SDS011;29153;42.696;23.218;2023-06-10T05:52:05;6.42;;;4.45;;
43552;SDS011;29153;42.696;23.218;2023-06-10T05:57:00;8.20;;;4.85;;
43552;SDS011;29153;42.696;23.218;2023-06-10T05:59:29;8.65;;;4.58;;
43552;SDS011;29153;42.696;23.218;2023-06-10T06:01:56;7.10;;;3.90;;
43552;SDS011;29153;42.696;23.218;2023-06-10T06:04:24;7.42;;;3.52;;
43552;SDS011;29153;42.696;23.218;2023-06-10T06:06:52;7.45;;;3.83;;
43552;SDS011;29153;42.696;23.218;2023-06-10T06:09:20;6.72;;;3.90;;
43552;SDS011;29153;42.696;23.218;2023-06-10T06:11:47;7.35;;;4.37;;
43552;SDS011;29153;42.696;23.218;2023-06-10T06:14:15;9.98;;;4.70;;
43552;SDS011;29153;42.696;23.218;2023-06-10T06:16:42;6.72;;;4.42;;
43552;SDS011;29153;42.696;23.218;2023-06-10T06:19:10;6.62;;;4.25;;
43552;SDS011;29153;42.696;23.218;2023-06-10T06:21:38;5.97;;;4.33;;
43552;SDS011;29153;42.696;23.218;2023-06-10T06:24:05;7.42;;;4.45;;
43552;SDS011;29153;42.696;23.218;2023-06-10T06:26:33;5.80;;;4.33;;
43552;SDS011;29153;42.696;23.218;2023-06-10T06:29:01;7.08;;;4.95;;
43552;SDS011;29153;42.696;23.218;2023-06-10T06:31:29;8.45;;;4.15;;
43552;SDS011;29153;42.696;23.218;2023-06-10T06:33:58;5.78;;;4.45;;
43552;SDS011;29153;42.696;23.218;2023-06-10T06:36:26;8.20;;;4.45;;
43552;SDS011;29153;42.696;23.218;2023-06-10T06:38:54;7.45;;;4.75;;
43552;SDS011;29153;42.696;23.218;2023-06-10T06:41:21;11.73;;;5.33;;
43552;SDS011;29153;42.696;23.218;2023-06-10T06:43:49;8.50;;;4.85;;
43552;SDS011;29153;42.696;23.218;2023-06-10T06:46:16;10.68;;;5.67;;
43552;SDS011;29153;42.696;23.218;2023-06-10T06:48:44;8.88;;;5.17;;
43552;SDS011;29153;42.696;23.218;2023-06-10T06:51:12;8.60;;;4.25;;
43552;SDS011;29153;42.696;23.218;2023-06-10T06:53:39;7.60;;;4.35;;
43552;SDS011;29153;42.696;23.218;2023-06-10T06:56:13;9.58;;;5.35;;
43552;SDS011;29153;42.696;23.218;2023-06-10T06:58:40;10.70;;;5.05;;
43552;SDS011;29153;42.696;23.218;2023-06-10T07:01:08;8.43;;;4.17;;
43552;SDS011;29153;42.696;23.218;2023-06-10T07:03:36;6.85;;;4.33;;
43552;SDS011;29153;42.696;23.218;2023-06-10T07:06:03;5.80;;;4.40;;
43552;SDS011;29153;42.696;23.218;2023-06-10T07:08:31;7.08;;;4.03;;
43552;SDS011;29153;42.696;23.218;2023-06-10T07:10:59;5.95;;;4.03;;
43552;SDS011;29153;42.696;23.218;2023-06-10T07:13:26;6.28;;;3.50;;
43552;SDS011;29153;42.696;23.218;2023-06-10T07:15:54;5.42;;;3.80;;
43552;SDS011;29153;42.696;23.218;2023-06-10T07:18:22;9.05;;;4.20;;
43552;SDS011;29153;42.696;23.218;2023-06-10T07:20:49;5.83;;;3.55;;
43552;SDS011;29153;42.696;23.218;2023-06-10T07:23:17;6.00;;;3.62;;
43552;SDS011;29153;42.696;23.218;2023-06-10T07:25:45;5.80;;;3.10;;
43552;SDS011;29153;42.696;23.218;2023-06-10T07:28:12;5.60;;;3.08;;
43552;SDS011;29153;42.696;23.218;2023-06-10T07:30:40;7.83;;;3.65;;
43552;SDS011;29153;42.696;23.218;2023-06-10T07:33:07;5.50;;;3.10;;
43552;SDS011;29153;42.696;23.218;2023-06-10T07:35:36;7.12;;;3.25;;
43552;SDS011;29153;42.696;23.218;2023-06-10T07:38:04;5.33;;;3.17;;
43552;SDS011;29153;42.696;23.218;2023-06-10T07:40:31;5.50;;;3.27;;
43552;SDS011;29153;42.696;23.218;2023-06-10T07:42:59;4.35;;;2.83;;
43552;SDS011;29153;42.696;23.218;2023-06-10T07:45:26;5.10;;;2.80;;
43552;SDS011;29153;42.696;23.218;2023-06-10T07:47:54;5.97;;;2.92;;
43552;SDS011;29153;42.696;23.218;2023-06-10T07:50:22;9.23;;;3.58;;
43552;SDS011;29153;42.696;23.218;2023-06-10T07:52:49;7.28;;;3.20;;
43552;SDS011;29153;42.696;23.218;2023-06-10T07:55:17;6.33;;;3.37;;
43552;SDS011;29153;42.696;23.218;2023-06-10T07:57:45;5.62;;;2.83;;
43552;SDS011;29153;42.696;23.218;2023-06-10T08:00:12;5.12;;;2.65;;
43552;SDS011;29153;42.696;23.218;2023-06-10T08:05:07;5.60;;;2.60;;
43552;SDS011;29153;42.696;23.218;2023-06-10T08:07:35;4.05;;;2.47;;
43552;SDS011;29153;42.696;23.218;2023-06-10T08:14:56;5.00;;;2.58;;
43552;SDS011;29153;42.696;23.218;2023-06-10T08:19:51;7.22;;;3.27;;
43552;SDS011;29153;42.696;23.218;2023-06-10T08:22:19;10.85;;;3.25;;
43552;SDS011;29153;42.696;23.218;2023-06-10T08:24:46;5.87;;;3.17;;
43552;SDS011;29153;42.696;23.218;2023-06-10T08:29:41;6.53;;;2.80;;
43552;SDS011;29153;42.696;23.218;2023-06-10T08:32:09;4.62;;;2.60;;
43552;SDS011;29153;42.696;23.218;2023-06-10T08:39:30;5.50;;;2.52;;
43552;SDS011;29153;42.696;23.218;2023-06-10T08:44:33;5.92;;;2.62;;
43552;SDS011;29153;42.696;23.218;2023-06-10T08:47:13;4.08;;;2.37;;
43552;SDS011;29153;42.696;23.218;2023-06-10T08:49:40;7.58;;;2.30;;
43552;SDS011;29153;42.696;23.218;2023-06-10T08:52:11;4.85;;;2.50;;
43552;SDS011;29153;42.696;23.218;2023-06-10T08:54:46;6.35;;;2.58;;
43552;SDS011;29153;42.696;23.218;2023-06-10T08:57:19;4.33;;;2.20;;
43552;SDS011;29153;42.696;23.218;2023-06-10T08:59:47;4.97;;;2.00;;
43552;SDS011;29153;42.696;23.218;2023-06-10T09:02:16;3.10;;;1.90;;
43552;SDS011;29153;42.696;23.218;2023-06-10T09:04:46;4.22;;;1.77;;
43552;SDS011;29153;42.696;23.218;2023-06-10T09:07:15;2.95;;;1.75;;
43552;SDS011;29153;42.696;23.218;2023-06-10T09:09:43;3.17;;;1.92;;
43552;SDS011;29153;42.696;23.218;2023-06-10T09:12:16;4.08;;;1.90;;
43552;SDS011;29153;42.696;23.218;2023-06-10T09:14:41;4.05;;;2.42;;
43552;SDS011;29153;42.696;23.218;2023-06-10T09:17:09;3.47;;;1.87;;
43552;SDS011;29153;42.696;23.218;2023-06-10T09:19:38;5.47;;;2.20;;
43552;SDS011;29153;42.696;23.218;2023-06-10T09:22:06;4.40;;;1.90;;
43552;SDS011;29153;42.696;23.218;2023-06-10T09:27:08;10.28;;;2.00;;
43552;SDS011;29153;42.696;23.218;2023-06-10T09:29:51;3.10;;;2.02;;
43552;SDS011;29153;42.696;23.218;2023-06-10T09:32:23;4.12;;;1.85;;
43552;SDS011;29153;42.696;23.218;2023-06-10T09:34:51;3.35;;;1.92;;
43552;SDS011;29153;42.696;23.218;2023-06-10T09:40:07;4.62;;;1.90;;
43552;SDS011;29153;42.696;23.218;2023-06-10T09:42:34;4.75;;;1.82;;
43552;SDS011;29153;42.696;23.218;2023-06-10T09:45:03;3.60;;;1.85;;
43552;SDS011;29153;42.696;23.218;2023-06-10T09:47:33;4.03;;;2.35;;
43552;SDS011;29153;42.696;23.218;2023-06-10T09:50:01;3.05;;;1.95;;
43552;SDS011;29153;42.696;23.218;2023-06-10T09:52:29;6.47;;;2.22;;
43552;SDS011;29153;42.696;23.218;2023-06-10T09:55:00;4.33;;;2.17;;
43552;SDS011;29153;42.696;23.218;2023-06-10T09:57:32;3.92;;;2.05;;
43552;SDS011;29153;42.696;23.218;2023-06-10T10:00:09;3.65;;;1.85;;
43552;SDS011;29153;42.696;23.218;2023-06-10T10:02:47;4.83;;;2.17;;
43552;SDS011;29153;42.696;23.218;2023-06-10T10:05:17;4.00;;;1.82;;
43552;SDS011;29153;42.696;23.218;2023-06-10T10:07:47;4.65;;;1.87;;
43552;SDS011;29153;42.696;23.218;2023-06-10T10:10:15;4.10;;;2.10;;
43552;SDS011;29153;42.696;23.218;2023-06-10T10:12:46;5.53;;;2.12;;
43552;SDS011;29153;42.696;23.218;2023-06-10T10:15:16;8.60;;;3.77;;
43552;SDS011;29153;42.696;23.218;2023-06-10T10:18:00;4.15;;;2.08;;
43552;SDS011;29153;42.696;23.218;2023-06-10T10:20:29;3.35;;;1.62;;
43552;SDS011;29153;42.696;23.218;2023-06-10T10:22:56;3.90;;;1.80;;
43552;SDS011;29153;42.696;23.218;2023-06-10T10:25:34;4.67;;;2.37;;
43552;SDS011;29153;42.696;23.218;2023-06-10T10:28:06;4.85;;;2.10;;
43552;SDS011;29153;42.696;23.218;2023-06-10T10:30:42;4.42;;;1.90;;
43552;SDS011;29153;42.696;23.218;2023-06-10T10:33:18;4.55;;;2.10;;
43552;SDS011;29153;42.696;23.218;2023-06-10T10:35:48;3.77;;;1.95;;
43552;SDS011;29153;42.696;23.218;2023-06-10T10:38:17;5.42;;;3.12;;
43552;SDS011;29153;42.696;23.218;2023-06-10T10:40:46;5.47;;;2.33;;
43552;SDS011;29153;42.696;23.218;2023-06-10T10:43:14;18.77;;;8.85;;
43552;SDS011;29153;42.696;23.218;2023-06-10T10:45:45;22.27;;;8.60;;
43552;SDS011;29153;42.696;23.218;2023-06-10T10:48:13;13.22;;;7.58;;
43552;SDS011;29153;42.696;23.218;2023-06-10T10:50:41;4.78;;;2.65;;
43552;SDS011;29153;42.696;23.218;2023-06-10T10:55:36;3.90;;;2.30;;
43552;SDS011;29153;42.696;23.218;2023-06-10T10:58:05;3.62;;;2.02;;
43552;SDS011;29153;42.696;23.218;2023-06-10T11:00:45;5.37;;;2.25;;
43552;SDS011;29153;42.696;23.218;2023-06-10T11:03:15;4.85;;;1.92;;
43552;SDS011;29153;42.696;23.218;2023-06-10T11:05:45;3.52;;;2.30;;
43552;SDS011;29153;42.696;23.218;2023-06-10T11:11:23;4.42;;;2.17;;
43552;SDS011;29153;42.696;23.218;2023-06-10T11:16:40;8.40;;;2.50;;
43552;SDS011;29153;42.696;23.218;2023-06-10T11:19:08;6.22;;;2.27;;
43552;SDS011;29153;42.696;23.218;2023-06-10T11:21:57;4.62;;;2.05;;
43552;SDS011;29153;42.696;23.218;2023-06-10T11:24:28;4.65;;;2.25;;
43552;SDS011;29153;42.696;23.218;2023-06-10T11:27:42;11.18;;;3.60;;
43552;SDS011;29153;42.696;23.218;2023-06-10T11:32:34;3.83;;;2.20;;
43552;SDS011;29153;42.696;23.218;2023-06-10T11:35:05;3.25;;;1.67;;
43552;SDS011;29153;42.696;23.218;2023-06-10T11:37:34;6.33;;;2.02;;
43552;SDS011;29153;42.696;23.218;2023-06-10T11:40:02;4.35;;;2.22;;
43552;SDS011;29153;42.696;23.218;2023-06-10T11:42:32;4.25;;;2.17;;
43552;SDS011;29153;42.696;23.218;2023-06-10T11:44:59;5.05;;;2.40;;
43552;SDS011;29153;42.696;23.218;2023-06-10T11:47:28;3.92;;;2.42;;
43552;SDS011;29153;42.696;23.218;2023-06-10T11:52:26;6.03;;;2.40;;
43552;SDS011;29153;42.696;23.218;2023-06-10T12:04:45;6.05;;;2.77;;
43552;SDS011;29153;42.696;23.218;2023-06-10T12:09:52;4.55;;;2.67;;
43552;SDS011;29153;42.696;23.218;2023-06-10T12:12:18;5.45;;;3.00;;
43552;SDS011;29153;42.696;23.218;2023-06-10T12:17:23;4.50;;;2.67;;
43552;SDS011;29153;42.696;23.218;2023-06-10T12:20:00;4.75;;;2.85;;
43552;SDS011;29153;42.696;23.218;2023-06-10T12:22:43;4.42;;;2.60;;
43552;SDS011;29153;42.696;23.218;2023-06-10T12:25:08;5.08;;;2.75;;
43552;SDS011;29153;42.696;23.218;2023-06-10T12:27:37;5.42;;;3.10;;
43552;SDS011;29153;42.696;23.218;2023-06-10T12:30:07;4.60;;;2.90;;
43552;SDS011;29153;42.696;23.218;2023-06-10T12:32:44;5.90;;;2.50;;
43552;SDS011;29153;42.696;23.218;2023-06-10T12:35:08;5.62;;;2.77;;
43552;SDS011;29153;42.696;23.218;2023-06-10T12:37:38;4.33;;;2.50;;
43552;SDS011;29153;42.696;23.218;2023-06-10T12:40:07;7.05;;;2.83;;
43552;SDS011;29153;42.696;23.218;2023-06-10T12:42:35;5.47;;;2.40;;
43552;SDS011;29153;42.696;23.218;2023-06-10T12:45:04;8.15;;;2.70;;
43552;SDS011;29153;42.696;23.218;2023-06-10T12:47:33;4.62;;;2.40;;
43552;SDS011;29153;42.696;23.218;2023-06-10T12:50:03;4.87;;;2.80;;
43552;SDS011;29153;42.696;23.218;2023-06-10T12:52:31;4.03;;;2.20;;
43552;SDS011;29153;42.696;23.218;2023-06-10T12:57:26;9.13;;;3.27;;
43552;SDS011;29153;42.696;23.218;2023-06-10T12:59:55;4.83;;;2.55;;
43552;SDS011;29153;42.696;23.218;2023-06-10T13:02:24;6.47;;;3.15;;
43552;SDS011;29153;42.696;23.218;2023-06-10T13:09:47;11.80;;;3.42;;
43552;SDS011;29153;42.696;23.218;2023-06-10T13:12:15;9.15;;;3.20;;
43552;SDS011;29153;42.696;23.218;2023-06-10T13:14:43;5.97;;;2.65;;
43552;SDS011;29153;42.696;23.218;2023-06-10T13:17:10;6.25;;;2.92;;
43552;SDS011;29153;42.696;23.218;2023-06-10T13:19:38;10.23;;;3.60;;
43552;SDS011;29153;42.696;23.218;2023-06-10T13:22:06;9.23;;;3.58;;
43552;SDS011;29153;42.696;23.218;2023-06-10T13:24:33;8.15;;;3.25;;
43552;SDS011;29153;42.696;23.218;2023-06-10T13:27:01;6.12;;;3.02;;
43552;SDS011;29153;42.696;23.218;2023-06-10T13:29:28;4.90;;;2.50;;
43552;SDS011;29153;42.696;23.218;2023-06-10T13:31:56;5.33;;;2.92;;
43552;SDS011;29153;42.696;23.218;2023-06-10T13:34:24;5.15;;;2.87;;
43552;SDS011;29153;42.696;23.218;2023-06-10T13:36:52;11.30;;;3.55;;
43552;SDS011;29153;42.696;23.218;2023-06-10T13:39:19;5.90;;;3.40;;
43552;SDS011;29153;42.696;23.218;2023-06-10T13:41:47;4.72;;;3.02;;
43552;SDS011;29153;42.696;23.218;2023-06-10T13:44:14;7.65;;;3.65;;
43552;SDS011;29153;42.696;23.218;2023-06-10T13:46:42;6.03;;;3.27;;
43552;SDS011;29153;42.696;23.218;2023-06-10T13:49:10;9.75;;;3.05;;
43552;SDS011;29153;42.696;23.218;2023-06-10T13:51:37;5.42;;;3.33;;
43552;SDS011;29153;42.696;23.218;2023-06-10T13:54:05;7.15;;;4.10;;
43552;SDS011;29153;42.696;23.218;2023-06-10T13:56:32;6.37;;;4.00;;
43552;SDS011;29153;42.696;23.218;2023-06-10T13:59:02;6.20;;;3.40;;
43552;SDS011;29153;42.696;23.218;2023-06-10T14:01:29;4.95;;;2.83;;
43552;SDS011;29153;42.696;23.218;2023-06-10T14:03:57;7.78;;;2.90;;
43552;SDS011;29153;42.696;23.218;2023-06-10T14:06:25;6.33;;;3.52;;
43552;SDS011;29153;42.696;23.218;2023-06-10T14:08:52;6.33;;;4.25;;
43552;SDS011;29153;42.696;23.218;2023-06-10T14:11:23;6.92;;;2.98;;
43552;SDS011;29153;42.696;23.218;2023-06-10T14:13:50;6.10;;;3.25;;
43552;SDS011;29153;42.696;23.218;2023-06-10T14:16:18;6.53;;;3.00;;
43552;SDS011;29153;42.696;23.218;2023-06-10T14:18:46;5.75;;;3.30;;
43552;SDS011;29153;42.696;23.218;2023-06-10T14:21:13;5.95;;;3.10;;
43552;SDS011;29153;42.696;23.218;2023-06-10T14:23:41;9.75;;;3.17;;
43552;SDS011;29153;42.696;23.218;2023-06-10T14:26:09;5.20;;;2.92;;
43552;SDS011;29153;42.696;23.218;2023-06-10T14:28:37;5.10;;;2.50;;
43552;SDS011;29153;42.696;23.218;2023-06-10T14:31:04;5.12;;;2.90;;
43552;SDS011;29153;42.696;23.218;2023-06-10T14:33:33;4.90;;;2.98;;
43552;SDS011;29153;42.696;23.218;2023-06-10T14:36:00;6.03;;;3.10;;
43552;SDS011;29153;42.696;23.218;2023-06-10T14:40:55;4.22;;;2.87;;
43552;SDS011;29153;42.696;23.218;2023-06-10T14:43:24;4.53;;;2.52;;
43552;SDS011;29153;42.696;23.218;2023-06-10T14:45:51;4.80;;;2.80;;
43552;SDS011;29153;42.696;23.218;2023-06-10T14:48:21;5.15;;;2.50;;
43552;SDS011;29153;42.696;23.218;2023-06-10T14:50:48;4.35;;;2.55;;
43552;SDS011;29153;42.696;23.218;2023-06-10T14:53:17;4.33;;;2.70;;
43552;SDS011;29153;42.696;23.218;2023-06-10T14:55:44;5.90;;;2.50;;
43552;SDS011;29153;42.696;23.218;2023-06-10T14:58:12;4.65;;;2.45;;
43552;SDS011;29153;42.696;23.218;2023-06-10T15:00:40;5.03;;;2.83;;
43552;SDS011;29153;42.696;23.218;2023-06-10T15:03:07;4.92;;;2.42;;
43552;SDS011;29153;42.696;23.218;2023-06-10T15:05:35;4.67;;;2.30;;
43552;SDS011;29153;42.696;23.218;2023-06-10T15:08:04;4.42;;;2.55;;
43552;SDS011;29153;42.696;23.218;2023-06-10T15:10:31;5.05;;;2.25;;
43552;SDS011;29153;42.696;23.218;2023-06-10T15:12:59;4.70;;;2.62;;
43552;SDS011;29153;42.696;23.218;2023-06-10T15:15:27;4.78;;;2.72;;
43552;SDS011;29153;42.696;23.218;2023-06-10T15:17:54;5.50;;;2.85;;
43552;SDS011;29153;42.696;23.218;2023-06-10T15:20:22;4.60;;;2.55;;
43552;SDS011;29153;42.696;23.218;2023-06-10T15:22:49;6.72;;;2.95;;
43552;SDS011;29153;42.696;23.218;2023-06-10T15:25:19;4.67;;;2.70;;
43552;SDS011;29153;42.696;23.218;2023-06-10T15:27:46;6.20;;;2.85;;
43552;SDS011;29153;42.696;23.218;2023-06-10T15:30:14;5.25;;;2.80;;
43552;SDS011;29153;42.696;23.218;2023-06-10T15:32:42;6.28;;;2.80;;
43552;SDS011;29153;42.696;23.218;2023-06-10T15:35:09;4.45;;;2.50;;
43552;SDS011;29153;42.696;23.218;2023-06-10T15:37:37;4.92;;;2.72;;
43552;SDS011;29153;42.696;23.218;2023-06-10T15:40:05;10.48;;;2.95;;
43552;SDS011;29153;42.696;23.218;2023-06-10T15:42:34;6.90;;;2.90;;
43552;SDS011;29153;42.696;23.218;2023-06-10T15:45:01;4.47;;;2.30;;
43552;SDS011;29153;42.696;23.218;2023-06-10T15:49:56;5.42;;;2.65;;
43552;SDS011;29153;42.696;23.218;2023-06-10T15:52:24;4.53;;;2.40;;